Results by/Résultats par Info:[email protected] Phone: (613)260-0994

                                    K-TOWN TRIATHLON

                                Sunday August 6th, 2006

                         Confederation Park, Kingston, Ontario

                        Overall Results - Short Course Triathlon

  -----FINAL----- ----------------------- ------------ -------------------- ----           750m                         30km                   7.2km
                                                       Category                     ------SWIM + T1-------    ----------BIKE--------    -------RUN + T2------- -------
    Pos     Time  Name                    City         Plc/Total Category     #      Cat  Ovr  Time  /100m     Cat Ovr Time  km/hr      Cat  Ovr  Time     km  Penalty
  ------  ------- ----------------------- ------------ -------------------- ----    ----------------------    ----------------------    ---------------------- -------
    1     1:26:11 Nick MCGRAW             DreamBig Tri   1/5   Elite Men     389    1      2   10:26  1:24    2      9   50:15  35.8     1      1   25:31  3:33         
    2     1:27:55 Jairus STREIGHT         DreamBig Tri   2/5   Elite Men     493    2      3   10:42  1:26    1      3   49:16  36.5     2      4   27:58  3:54         
    3     1:28:20 Peter HAMILTON          Ottawa         1/31  M40 - 44      369    1     12   11:57  1:36    1      2   46:30  38.7     2     10   29:53  4:09         
    4     1:31:25 James SCHRIEL           Kanata         1/19  M30 - 34      502    2     18   12:42  1:42    2      8   50:07  35.9     1      5   28:36  3:59         
    5     1:31:45 Dalton COTE             Kingston       2/31  M40 - 44      496    2     28   13:16  1:47    2      4   49:29  36.4     1      6   29:00  4:02         
    6     1:32:48 Keith DUSTIN            Kingston       1/24  M45 - 49      475    3     31   13:27  1:48    1      5   49:32  36.3     1      9   29:50  4:09         
    7     1:32:57 Gerry LASHLEY           Toronto        1/28  M35 - 39      350    27   271   27:21  3:39    1      1   36:30  49.3     1      7   29:07  4:03         
    8     1:33:43 David FARNELL           RR 1 Inverar   1/8   Junior Men    288    3     13   12:09  1:38    2     36   53:56  33.4     1      3   27:40  3:51         
    9     1:35:07 Aron WEIR               Guelph         2/19  M30 - 34      448    3     20   12:49  1:43    3     10   50:15  35.8     2     11   30:04  4:11    2:00 
   10     1:35:09 Murray TOUGH            Kingston       3/31  M40 - 44      212    7     53   14:56  2:00    3      7   49:53  36.1     3     14   30:21  4:13         
   11     1:36:43 Michael MURRAY          Ajax           2/8   Junior Men    380    2      5   11:15  1:30    4     52   55:18  32.5     2     12   30:10  4:12         
   12     1:37:05 Craig FAUCETTE          Kignston       3/19  M30 - 34      430    4     25   13:10  1:46    4     16   52:02  34.6     4     19   31:54  4:26         
   13     1:37:05 Bill DEE                Toronto        4/19  M30 - 34      254    6     55   15:02  2:01    1      6   49:52  36.1     3     13   30:12  4:12    2:00 
   14     1:37:27 Lianne ARCHAMBAULT      Kingston       1/21  W35 - 39      229    1      7   11:26  1:32    1     25   52:33  34.3     1     31   33:29  4:39         
   15     1:37:29 Trevor TOVELL           Windsor        1/6   M20 - 24      383    1      8   11:29  1:32    4     53   55:25  32.5     2     15   30:36  4:15         
   16     1:37:45 Michael TRANMER         Kingston       1/14  M25 - 29      497    2     11   11:45  1:34    2     22   52:24  34.4     1     34   33:37  4:41         
   17 CLY 1:38:01 Richard CADMAN          Battersea      2/24  M45 - 49      359    2     24   13:05  1:45    2     11   50:33  35.6     6     50   34:24  4:47         
   18     1:38:07 Ian DONOHUE             Maple          2/6   M20 - 24      330    3     51   14:49  1:59    1     12   50:47  35.4     3     25   32:32  4:32         
   19     1:38:59 Paul BOSTON             Toronto        2/28  M35 - 39      353    4     37   13:53  1:52    8     40   54:07  33.3     2     16   30:59  4:19         
   20     1:39:05 David PETERSON          Napanee        3/28  M35 - 39      327    2     26   13:12  1:46    9     41   54:14  33.2     3     17   31:40  4:24         
   21     1:39:34 Alan WONG               Kingston       3/6   M20 - 24      363    6    151   17:38  2:22    2     24   52:32  34.3     1      8   29:25  4:06         
   22     1:40:03 William COOPER          Kingston       3/24  M45 - 49      315    1     22   12:56  1:44    4     32   53:34  33.6     3     33   33:34  4:40         
   23     1:40:20 Gary TRANMER            Kingston       1/10  M50 - 54      504    2     27   13:14  1:46    2     28   52:55  34.0     2     43   34:11  4:45         
   24     1:40:50 Mike WEBER              Maple          5/19  M30 - 34      458    1      9   11:33  1:33    7     62   55:58  32.2     5     27   33:20  4:38         
   25     1:40:57 Kevin HALL              Kingston       4/24  M45 - 49      308    4     32   13:29  1:48    3     17   52:02  34.6     9     65   35:27  4:56         
   26     1:40:59 Laurie ROSS             Battersea      1/12  W40 - 44      358    1     14   12:16  1:39    1     30   53:31  33.6     1     61   35:13  4:54         
   27     1:41:10 Andrew SLOT             Kingston       2/14  M25 - 29      304    1      1   10:19  1:23    1     21   52:20  34.4     9    117   38:31  5:21         
   28     1:41:25 Denis MOORE             Napanee        4/31  M40 - 44      227    16   124   16:59  2:16    5     19   52:14  34.5     5     22   32:13  4:29         
   29     1:41:31 James MATHERS           Toronto        2/10  M50 - 54      291    3     69   15:26  2:04    3     38   54:05  33.3     1     20   32:01  4:27         
   30     1:41:32 Ian JOINER              Gatineau       4/28  M35 - 39      436    1     23   13:03  1:45    7     37   53:58  33.4     9     54   34:32  4:48         
   31     1:41:38 Michael NUTTALL         London         6/19  M30 - 34      507    5     42   14:11  1:54    5     27   52:46  34.1     9     56   34:42  4:50         
   32     1:42:03 Zorian MAKSYMEC         Inverary       3/8   Junior Men    403    1      4   11:11  1:30    1     20   52:16  34.4     6    119   38:36  5:22         
   33     1:42:37 Mitch FALLIS            Yarker         5/31  M40 - 44      217    4     38   13:55  1:52    6     23   52:26  34.3     8     47   34:17  4:46    2:00 
   34     1:42:38 Kristian BONN           Trenton        7/19  M30 - 34      388    7     73   15:30  2:04    6     33   53:46  33.5     6     28   33:23  4:39         
   35     1:43:04 Jairo MUNOZ             Kingston       5/28  M35 - 39      243    5     52   14:51  1:59    11    47   54:49  32.8     6     29   33:25  4:39         
   36     1:43:15 Dale ENGEN              Kingston       6/28  M35 - 39      355    9     90   16:20  2:11    6     35   53:55  33.4     5     26   33:01  4:36         
   37     1:43:23 Chris FLYNN             Ottawa         5/24  M45 - 49      462    8     75   15:36  2:05    5     39   54:07  33.3     4     36   33:41  4:41         
   38     1:43:27 Margot HALL             Ottawa         1/19  W30 - 34      405    3     19   12:48  1:43    1     34   53:49  33.4     4     92   36:51  5:07         
   39     1:43:31 James BECK              Kingston       3/14  M25 - 29      253    5     44   14:13  1:54    4     50   55:06  32.7     3     44   34:13  4:46         
   40     1:43:52 Dan WHITE               Kanata         4/14  M25 - 29      479    4     33   13:36  1:49    5     59   55:49  32.2     4     52   34:28  4:48         
   41     1:44:12 Jennie AITKEN           Kingston       1/5   Junior Women  377    2     35   13:45  1:50    1     66   56:13  32.0     1     46   34:15  4:46         
   42     1:44:14 Rick ROONEY             Kingston       6/31  M40 - 44      411    13   104   16:43  2:14    8     54   55:25  32.5     4     21   32:06  4:28         
   43     1:44:15 Erika MCEACHRAN         Ottawa         1/23  W25 - 29      214    1     34   13:43  1:50    1     42   54:19  33.1     2     80   36:14  5:02         
   44     1:44:37 Sean MCNULTY            Mississauga    7/28  M35 - 39      357    3     36   13:52  1:51    10    46   54:27  33.1     15    87   36:19  5:03         
   45     1:44:55 Bryan SARAKA            Kingston       8/28  M35 - 39      285    7     67   15:24  2:04    3     15   51:58  34.6     17   102   37:35  5:14         
   46     1:45:14 Devin REYNOLDS          Kingston       4/8   Junior Men    238    6    120   16:56  2:16    5     63   55:58  32.2     3     23   32:21  4:30         
   47     1:45:22 Chris KOCH              Kanata         7/31  M40 - 44      472    20   145   17:32  2:21    4     14   51:52  34.7     9     73   35:58  5:00         
   48     1:45:22 Dorelle HINTON          Kingston       2/5   Junior Women  281    1      6   11:22  1:31    2     98   58:26  30.8     2     68   35:35  4:57         
   49     1:45:32 Brian MACGILLIVRAY      Kingston       8/31  M40 - 44      222    5     41   14:09  1:54    13    82   57:20  31.4     6     41   34:03  4:44         
   50     1:45:57 Tim GILLESPIE           Kingston       5/14  M25 - 29      282    3     21   12:51  1:43    10   108   59:06  30.5     2     40   34:02  4:44         
   51     1:46:04 Jim MCMAHON             Belleville     9/28  M35 - 39      453    20   182   18:49  2:31    4     18   52:03  34.6     11    60   35:13  4:54         
   52     1:46:11 Dave STOCK              Kingston       6/14  M25 - 29      375    9    135   17:16  2:19    3     44   54:25  33.1     5     53   34:31  4:48         
   53     1:46:25 Joscelyn COOLICAN       Ottawa         2/19  W30 - 34      314    8    105   16:45  2:14    2     67   56:13  32.0     1     30   33:28  4:39         
   54     1:46:28 Eric LINDENBERG         Belleville     3/10  M50 - 54      283    7    176   18:43  2:30    1     26   52:34  34.2     3     59   35:12  4:54         
   55     1:46:36 Andrew MACKIE           Montreal      10/28  M35 - 39      376    12   113   16:50  2:15    13    57   55:46  32.3     8     39   34:00  4:44         
   56     1:46:53 John DUFFNEY            Kingston       9/31  M40 - 44      326    14   111   16:49  2:15    9     60   55:50  32.2     7     45   34:15  4:46         
   57     1:46:59 John ST.MARSEILLE       Cornwall      10/31  M40 - 44      221    6     47   14:34  1:57    10    61   55:53  32.2     13    89   36:33  5:05         
   58     1:47:04 Don COWIN               RR3 Bath       6/24  M45 - 49      202    5     43   14:12  1:54    9     79   57:13  31.5     10    70   35:41  4:58         
   59     1:47:21 Jeff MCCUE              Kingston       4/6   M20 - 24      442    5    148   17:35  2:21    3     29   53:31  33.6     5     82   36:16  5:03         
   60     1:47:37 Mike KORCZYNSKI         Kingston       5/6   M20 - 24      505    2     39   14:07  1:53    5     84   57:28  31.3     4     75   36:03  5:01         
   61     1:47:52 Alison CHALMERS         Kingston       1/16  W20 - 24      371    1     15   12:22  1:39    4    145 1:01:26  29.3     3     42   34:04  4:44         
   62     1:47:53 Andrew THEW             Belleville    11/28  M35 - 39      206    17   162   18:04  2:25    5     31   53:33  33.6     14    84   36:17  5:03         
   63     1:48:01 Marianne KNAI           Lachine/Mont   2/23  W25 - 29      492    5    118   16:54  2:16    11   183 1:04:03  28.1     1      2   27:04  3:46         
   64     1:48:14 Angela BROWN            Bath           3/19  W30 - 34      287    1     10   11:34  1:33    4    121   59:33  30.2     5     96   37:09  5:10         
   65     1:48:32 Justin MURPHY           Kingston       5/8   Junior Men    346    5     93   16:27  2:12    3     43   54:21  33.1     4    105   37:45  5:15         
   66     1:48:59 Ryan TRAVERS            North Bay      8/19  M30 - 34      305    11    87   16:13  2:10    8     68   56:17  32.0     10    88   36:31  5:05         
   67     1:49:01 Shelley MULROONEY       Kingston       2/21  W35 - 39      237    5     63   15:11  2:02    2     78   57:12  31.5     4     90   36:39  5:06         
   68     1:49:03 Daniel DEBRIE           Kingston       7/24  M45 - 49      452    11   108   16:47  2:15    10    88   57:53  31.1     7     51   34:25  4:47         
   69     1:49:17 Eric BACON              Kingston      12/28  M35 - 39      322    8     71   15:29  2:04    12    51   55:16  32.6     20   118   38:33  5:22         
   70     1:49:29 Michelle COLE           Kingston       3/21  W35 - 39      372    2     29   13:18  1:47    3    115   59:24  30.3     5     91   36:48  5:07         
   71 CLY 1:49:32 Jay C. JAMES            Napanee       13/28  M35 - 39      429    18   178   18:44  2:30    2     13   51:23  35.0     21   131   39:25  5:29         
   72 CLY 1:49:33 Ken POLSON              Kanata         8/24  M45 - 49      473    16   131   17:05  2:17    6     49   54:56  32.8     13   101   37:33  5:13         
   73     1:49:37 Ian MOORE               Kingston       9/19  M30 - 34      443    8     74   15:34  2:05    12   118   59:30  30.3     8     55   34:34  4:48         
   74     1:49:57 Mark ROBERTSON          Burlington    14/28  M35 - 39      257    14   130   17:04  2:17    19   112   59:16  30.4     7     35   33:38  4:41         
   75     1:50:01 Jamie CUNNINGHAM        Milton        10/19  M30 - 34      498    9     79   15:49  2:07    14   129 1:00:17  29.9     7     38   33:56  4:43         
   76     1:50:01 Vince RAMSAY            Inverary       9/24  M45 - 49      506    18   166   18:26  2:28    14   125   59:44  30.1     2     18   31:52  4:26         
   77     1:50:39 Timothy DESSON          Ottawa         7/14  M25 - 29      410    7    106   16:46  2:15    7     73   56:36  31.8     7     97   37:19  5:11         
   78 CLY 1:50:57 Marco ALESSIO           Elora         11/31  M40 - 44      482    17   125   17:00  2:16    14    89   57:54  31.1     11    76   36:04  5:01         
   79     1:50:58 Michael BURLEIGH        Montreal      15/28  M35 - 39      362    24   233   21:16  2:51    15    80   57:13  31.5     4     24   32:30  4:31         
   80     1:51:11 Claire MICHEL           Kingston       2/16  W20 - 24      374    2     40   14:07  1:53    1     69   56:18  32.0     8    149   40:48  5:40         
   81     1:51:15 Kelly MORRICE           Kingston       1/15  W45 - 49      450    3    142   17:26  2:20    2    102   58:33  30.7     1     62   35:16  4:54         
   82     1:51:19 Peter AUCHINCLOSS       Kingston      12/31  M40 - 44      226    3     30   13:23  1:48    19   136 1:00:49  29.6     14    95   37:08  5:10         
   83     1:51:30 Denise KYER             London         3/16  W20 - 24      463    7     57   15:04  2:01    6    159 1:02:44  28.7     2     37   33:43  4:41         
   84     1:51:32 Marie-h?l?ne ROCHON     Kingston       3/23  W25 - 29      495    4     84   15:57  2:08    5    101   58:29  30.8     4     93   37:07  5:10         
   85     1:51:35 Christopher HEAYS       Waterloo       8/14  M25 - 29      240    6     46   14:32  1:57    11   123   59:41  30.2     8     99   37:22  5:12         
   86     1:51:45 Al GARRAH               Kingston      13/31  M40 - 44      474    9     66   15:19  2:03    11    70   56:24  31.9     21   139   40:02  5:34         
   87     1:51:51 Jennifer BROWN          Gatineau       4/19  W30 - 34      433    2     16   12:24  1:40    11   179 1:03:53  28.2     2     67   35:35  4:57         
   88     1:52:00 Suzanne DOSTALER        Kingston       2/15  W45 - 49      419    6    167   18:27  2:28    1     90   57:55  31.1     2     69   35:39  4:58         
   89     1:52:22 Shannon HILL            Kingston       4/21  W35 - 39      338    3     60   15:07  2:01    8    167 1:02:57  28.6     2     49   34:19  4:46         
   90     1:52:30 Tegan UPJOHN            Kingston       4/23  W25 - 29      306    3     80   15:52  2:07    4     99   58:26  30.8     5    112   38:13  5:19         
   91     1:52:36 Mike STUDLI             Venise-en-qu   3/5   Elite Men     392    4    160   17:58  2:24    4     85   57:31  31.3     4     94   37:07  5:10         
   92     1:52:40 Doug LAUGHTON           Ottawa        14/31  M40 - 44      342    10    82   15:54  2:08    18   132 1:00:39  29.7     12    78   36:08  5:02         
   93     1:52:44 Rachael MORKEM          Kingston       4/16  W20 - 24      379    14   159   17:57  2:24    2    140 1:01:17  29.4     1     32   33:32  4:40         
   94     1:52:46 Brian BECK              Kingston      15/31  M40 - 44      382    21   156   17:52  2:23    12    76   57:11  31.5     15   104   37:44  5:15         
   95     1:52:48 Andre WISTAFF           Kingston      16/31  M40 - 44      491    8     59   15:06  2:01    16   107   58:58  30.5     17   120   38:45  5:23         
   96     1:52:49 Darryl SMITH            Kingston      16/28  M35 - 39      209    13   123   16:58  2:16    16    92   57:59  31.0     18   109   37:53  5:16         
   97     1:52:53 Ross WALKER             Glenburnie    10/24  M45 - 49      245    6     49   14:39  1:58    18   152 1:02:01  29.0     11    81   36:15  5:02         
   98     1:52:56 Dave WHITE              Ottawa         4/10  M50 - 54      210    8    223   20:29  2:44    4     45   54:25  33.1     4    110   38:03  5:17         
   99     1:53:11 Scott SPENCER           Seeleys Bays  11/24  M45 - 49      508    7     68   15:25  2:04    12   100   58:27  30.8     14   129   39:19  5:28         
  100     1:53:16 Rob LEE                 Ottawa        17/28  M35 - 39      484    10    97   16:32  2:13    17    95   58:13  30.9     19   116   38:31  5:21         
  101     1:53:21 Tom SKINNER             Kingston       6/6   M20 - 24      454    4    147   17:34  2:21    6     94   58:13  30.9     6    103   37:36  5:14         
  102     1:53:22 Denis MCCALLUM          Courtice      12/24  M45 - 49      335    19   202   19:41  2:38    13   116   59:25  30.3     5     48   34:17  4:46         
  103     1:53:38 Brian FLYNN             Kingston      18/28  M35 - 39      316    11   112   16:50  2:15    14    64   55:59  32.2     22   150   40:51  5:41         
  104     1:53:46 Rick HUNT               Kingston      13/24  M45 - 49      297    14   121   16:57  2:16    7     58   55:47  32.3     15   153   41:03  5:43         
  105     1:53:49 Alison GORHAM           Courtice       3/15  W45 - 49      333    7    170   18:32  2:29    3    119   59:31  30.2     3     72   35:47  4:59         
  106     1:54:07 Chris CHARD             Kingston      19/28  M35 - 39      220    15   132   17:09  2:18    20   122   59:40  30.2     16    98   37:19  5:11         
  107     1:54:29 Miles COOK              Kingston       9/14  M25 - 29      320    12   231   21:14  2:50    9     96   58:19  30.9     6     58   34:58  4:52         
  108     1:54:30 Andres PUGI             Mississauga   17/31  M40 - 44      397    11    99   16:39  2:14    15    97   58:22  30.8     20   132   39:30  5:30         
  109     1:54:43 Dave GROSS              Clifton Park   4/5   Elite Men     400    3    154   17:44  2:22    5    133 1:00:44  29.6     3     83   36:16  5:03         
  110     1:54:51 Jennifer BROXTERMAN     Kingston       5/16  W20 - 24      386    12   133   17:12  2:18    5    151 1:01:58  29.0     4     71   35:41  4:58         
  111     1:54:55 Colleen CAMERON         Nepean         5/23  W25 - 29      274    7    146   17:32  2:21    3     81   57:20  31.4     9    141   40:03  5:34         
  112     1:55:04 Nick FARR               Hopewell       6/8   Junior Men    409    7    220   20:24  2:44    6     74   56:55  31.6     5    106   37:45  5:15         
  113     1:55:04 Guy PHILLIPS            Markham        5/10  M50 - 54      418    4     77   15:38  2:06    8    128 1:00:15  29.9     5    128   39:12  5:27         
  114     1:55:09 Doug RONSON             Kingston      14/24  M45 - 49      280    21   248   22:53  3:04    8     75   56:57  31.6     8     64   35:19  4:55         
  115     1:55:12 Paige DEMONG            Kingston       6/23  W25 - 29      321    17   201   19:36  2:37    6    113   59:18  30.4     3     86   36:19  5:03         
  116     1:55:17 Tony LEE                Brampton      18/31  M40 - 44      399    27   241   21:58  2:56    7     48   54:56  32.8     16   115   38:24  5:20         
  117     1:55:18 Stacy JOWETT            Seeleys bay    7/23  W25 - 29      368    8    152   17:39  2:22    2     77   57:12  31.5     12   145   40:28  5:38         
  118     1:55:29 Craig MOORE             Kingston      11/19  M30 - 34      228    15   172   18:36  2:29    9     87   57:50  31.1     12   125   39:04  5:26         
  119     1:55:35 Brett GOODWIN           Kingston      20/28  M35 - 39      302    19   181   18:48  2:31    21   150 1:01:53  29.1     10    57   34:55  4:51         
  120     1:55:39 Shannon CHESTNUT        Kingston       8/23  W25 - 29      255    9    153   17:40  2:22    7    124   59:43  30.1     6    113   38:17  5:19         
  121     1:55:50 Jim KEECH               Bath          15/24  M45 - 49      310    13   117   16:54  2:16    17   143 1:01:26  29.3     12   100   37:31  5:13         
  122     1:56:27 Jennifer BIRKAS         Gananoque      5/21  W35 - 39      250    9    100   16:41  2:14    5    146 1:01:26  29.3     8    114   38:20  5:20         
  123     1:56:27 Shane ONEIL             Pickering     12/19  M30 - 34      470    10    85   16:00  2:08    13   120   59:31  30.2     14   151   40:56  5:42         
  124     1:56:33 Laura FRANKLIN          Toronto        6/16  W20 - 24      339    3     45   14:29  1:56    3    144 1:01:26  29.3     7    147   40:39  5:39         
  125     1:56:37 Beth GARCIA             Brockville     6/21  W35 - 39      394    14   177   18:44  2:30    4    126   59:46  30.1     7    111   38:08  5:18         
  126     1:56:42 Johnny MAZZEO           Kingston      10/14  M25 - 29      426    8    116   16:53  2:15    8     86   57:40  31.2     11   170   42:10  5:52         
  127     1:56:45 Krista VERYZER          Kingston       5/19  W30 - 34      331    10   128   17:03  2:17    6    137 1:00:53  29.6     6    123   38:51  5:24         
  128     1:56:47 Chantal MERCIER         Ottawa         6/19  W30 - 34      490    12   171   18:35  2:29    3    109   59:09  30.4     7    126   39:04  5:26         
  129     1:56:52 Greg KERR               Tweed          1/7   M55 - 59      205    3    150   17:38  2:21    1     55   55:35  32.4     4    191   43:40  6:04         
  130     1:57:04 Carla CESARONI          Toronto        2/12  W40 - 44      261    4    114   16:51  2:15    2    104   58:52  30.6     4    159   41:22  5:45         
  131     1:57:09 Bev WHITEN              Kingston       7/21  W35 - 39      435    10   137   17:18  2:19    6    153 1:02:04  29.0     6    107   37:48  5:15         
  132     1:57:10 Laurel BASCIANO         Kingston       7/19  W30 - 34      213    13   180   18:47  2:31    8    156 1:02:17  28.9     3     77   36:08  5:01         
  133     1:58:06 Mark WALDRON            Kingston      19/31  M40 - 44      345    15   119   16:55  2:16    25   198 1:05:13  27.6     10    74   35:59  5:00         
  134     1:58:17 Brett LOCKERBIE         Kingston       6/10  M50 - 54      233    6    139   17:19  2:19    7     91   57:58  31.1     7    180   43:00  5:59         
  135     1:58:46 Karen SALTMARSH         Whitby         8/21  W35 - 39      486    15   194   19:15  2:34    10   172 1:03:16  28.5     3     85   36:17  5:03         
  136     1:59:08 Timon GARREAU           Ashton         5/5   Elite Men     218    5    247   22:51  3:03    3     72   56:34  31.8     5    136   39:45  5:32         
  137     1:59:13 Tony MANASTERSKY        Bath          16/24  M45 - 49      286    10    98   16:33  2:13    16   141 1:01:17  29.4     16   161   41:23  5:45         
  138     1:59:16 Mark BENSON             Harrowsmith    2/7   M55 - 59      309    1     64   15:16  2:03    6    163 1:02:49  28.7     1    156   41:12  5:44         
  139     1:59:27 Shirley MYERS           Kingston       1/8   W50 - 54      259    2    209   19:55  2:40    2    184 1:04:03  28.1     1     66   35:29  4:56         
  140     1:59:29 Cheryl ENDERS           Kingston       4/15  W45 - 49      449    1     72   15:29  2:04    4    130 1:00:17  29.9     7    192   43:43  6:05         
  141     1:59:46 Cesar RODRIGUEZ         Toronto       21/28  M35 - 39      248    22   204   19:44  2:38    24   180 1:03:54  28.2     13    79   36:09  5:02         
  142 CLY 1:59:51 Michael DAVIDSON        Ottawa        13/19  M30 - 34      401    14   169   18:31  2:29    11   114   59:24  30.3     15   167   41:57  5:50         
  143     1:59:53 Lorry GRIMARD           Kingston       3/5   Junior Women  208    3     86   16:11  2:10    3    117   59:28  30.3     3    174   42:15  5:53    2:00 
  144     2:00:10 John DANCE              Ottawa         3/7   M55 - 59      207    2    149   17:36  2:21    3    135 1:00:47  29.6     2    165   41:48  5:49         
  145     2:00:22 Kira MCNEELY            Kingston       3/12  W40 - 44      293    7    187   18:57  2:32    3    134 1:00:47  29.6     2    148   40:39  5:39         
  146     2:00:23 Carolyn BROWN           Kingston       7/16  W20 - 24      471    11   109   16:47  2:15    7    174 1:03:17  28.4     5    144   40:19  5:36         
  147     2:00:23 Courtney BRESEE         Amherstview    9/23  W25 - 29      428    16   191   19:07  2:33    8    149 1:01:42  29.2     8    133   39:35  5:30         
  148     2:00:25 Steve SILLS             Komoka        20/31  M40 - 44      378    18   127   17:01  2:17    24   194 1:04:39  27.8     18   121   38:45  5:23         
  149     2:00:31 Joan TRANMER            Kingston       2/8   W50 - 54      464    1     89   16:18  2:11    1    110   59:09  30.4     3    203   45:04  6:16         
  150 CLY 2:00:39 Mark FORKNALL           Kingston      14/19  M30 - 34      459    13   136   17:17  2:19    10   103   58:43  30.7     18   200   44:41  6:13         
  151     2:00:42 Chris OUIMET            Kingston      11/14  M25 - 29      485    14   261   24:34  3:17    6     71   56:29  31.9     10   135   39:41  5:31         
  152     2:00:56 Sue STRONG              Mississauga    9/21  W35 - 39      370    7     94   16:30  2:12    9    170 1:03:10  28.5     12   157   41:17  5:44         
  153     2:00:57 Andre DOSTALER          Kingston       7/10  M50 - 54      416    9    249   22:59  3:04    6     65   56:02  32.1     6    168   41:57  5:50         
  154     2:01:09 Paul BOWMAN             Kingston      21/31  M40 - 44      325    19   134   17:12  2:18    21   160 1:02:48  28.7     22   155   41:09  5:43         
  155     2:01:10 Philip BLACKFORD        Toronto        8/10  M50 - 54      437    5     83   15:57  2:08    9    142 1:01:20  29.3     8    195   43:54  6:06         
  156     2:01:23 Blair ELLIS             Nepean        22/28  M35 - 39      440    6     58   15:05  2:01    18   111   59:13  30.4     26   227   47:06  6:33         
  157     2:01:49 Diane HARPER            Frankford      4/12  W40 - 44      407    2     70   15:28  2:04    6    176 1:03:20  28.4     3    152   41:02  5:42    2:00 
  158     2:01:50 Zach HUNT               Kingston       7/8   Junior Men    296    4     61   15:08  2:02    7     83   57:25  31.3     8    241   49:17  6:51         
  159     2:01:56 Ross RAE                Belleville    17/24  M45 - 49      292    12   115   16:52  2:15    11    93   58:12  30.9     19   224   46:53  6:31         
  160     2:02:01 Lexie CODE              Toronto        8/19  W30 - 34      276    15   195   19:16  2:35    7    148 1:01:42  29.2     9    154   41:04  5:43         
  161     2:02:06 Jennifer CHAMBERS       Peterborough   9/19  W30 - 34      275    9    126   17:01  2:17    13   199 1:05:28  27.5     8    134   39:38  5:31         
  162     2:02:17 Geoff DEIR              Gananoque     15/19  M30 - 34      251    12   110   16:48  2:15    16   173 1:03:16  28.5     17   172   42:14  5:52         
  163     2:02:37 Richelle LECK           Pickerin       5/12  W40 - 44      402    5    164   18:16  2:27    4    168 1:02:58  28.6     5    160   41:23  5:45         
  164     2:02:39 Gaetan KENWAY           Kingston       8/8   Junior Men    263    8    243   22:14  2:58    8    105   58:54  30.6     7    163   41:32  5:47         
  165     2:03:06 Nicole ROSS             Kingston       8/16  W20 - 24      337    10    95   16:31  2:13    8    204 1:06:08  27.2     6    146   40:28  5:38         
  166     2:03:07 Scott MORRISON          Kingston      22/31  M40 - 44      279    24   225   20:45  2:46    22   177 1:03:35  28.3     19   122   38:48  5:24         
  167     2:03:11 Michael BIRD            Cornwall      23/28  M35 - 39      398    16   138   17:19  2:19    25   182 1:04:03  28.1     23   166   41:51  5:49         
  168     2:03:14 Nancy BRENNAN           Kingston       1/1   W55 - 59      323    1    107   16:46  2:15    1    185 1:04:04  28.1     1    176   42:25  5:54         
  169     2:03:53 Diane URIE              Kingston      10/21  W35 - 39      241    4     62   15:11  2:02    12   206 1:06:13  27.2     14   177   42:30  5:55         
  170     2:03:55 Rob RENAUD              Yarker        18/24  M45 - 49      200    15   129   17:03  2:17    19   158 1:02:37  28.7     18   197   44:16  6:09         
  171     2:04:05 Maria CRONK             Kingston       5/15  W45 - 49      352    2    122   16:57  2:16    5    181 1:03:58  28.1     5    186   43:11  6:00         
  172     2:04:14 Grazia SCOPPIO          Kingston       6/12  W40 - 44      367    8    200   19:32  2:37    5    171 1:03:16  28.5     6    162   41:27  5:46         
  173     2:04:16 Antonino RIZZO          Toronto       12/14  M25 - 29      249    10   207   19:49  2:39    12   154 1:02:05  29.0     13   175   42:23  5:54         
  174     2:04:19 Susanne KIDD            Toronto       10/23  W25 - 29      488    6    143   17:29  2:20    14   212 1:06:44  27.0     10   142   40:07  5:35         
  175     2:04:22 Penny LOWE              Kingston      11/21  W35 - 39      438    11   163   18:08  2:26    14   221 1:07:13  26.8     9    124   39:02  5:26         
  176     2:04:28 Siobhan KELLY           Kingston      12/21  W35 - 39      334    12   173   18:37  2:29    11   175 1:03:19  28.4     15   178   42:32  5:55         
  177 CLY 2:04:39 Ian SEMPOWSKI           Kingston      23/31  M40 - 44      219    12   102   16:42  2:14    20   147 1:01:29  29.3     29   220   46:28  6:28         
  178     2:04:41 John JESSOME            Kingston      24/28  M35 - 39      480    26   270   27:04  3:37    22   157 1:02:21  28.9     12    63   35:17  4:55         
  179     2:04:43 Shan JHAMANDAS          Kingston      16/19  M30 - 34      272    17   215   20:10  2:42    18   214 1:06:45  27.0     11   108   37:49  5:16         
  180     2:04:45 Gordon BOYD             Kingston      17/19  M30 - 34      277    18   224   20:33  2:45    17   190 1:04:28  27.9     13   137   39:45  5:32         
  181     2:04:55 John C. HALL            Kingston       4/7   M55 - 59      356    7    244   22:20  2:59    2    106   58:57  30.5     3    188   43:39  6:04         
  182     2:04:59 Cindy COWIN             RR3 Bath       6/15  W45 - 49      201    8    190   19:04  2:33    6    187 1:04:12  28.0     4    164   41:43  5:48         
  183     2:05:00 Mel THERIEN             Harrowsmith    1/1   M60 - 64      247    1    217   20:13  2:42    1    195 1:04:46  27.8     1    140   40:02  5:34         
  184     2:05:57 Sherri SCHMIDT STUTZMAN Kingston      11/23  W25 - 29      349    11   168   18:30  2:28    16   226 1:08:07  26.4     7    130   39:20  5:28         
  185     2:05:59 Alyson CHARRETTE        Kingston      13/21  W35 - 39      365    16   214   20:02  2:41    13   217 1:06:47  27.0     10   127   39:11  5:27         
  186     2:06:05 Keith WILKIE            North syracu  19/24  M45 - 49      373    17   161   18:00  2:24    20   186 1:04:07  28.1     17   196   43:58  6:07         
  187     2:06:11 Heather MURRAY          Kingston      14/21  W35 - 39      294    6     76   15:37  2:05    7    166 1:02:53  28.6     17   208   45:41  6:21    2:00 
  188     2:06:24 Erin MACHUK             Milton        10/19  W30 - 34      499    6    101   16:42  2:14    15   203 1:06:03  27.3     10   189   43:40  6:04         
  189     2:06:59 Karen ROBERTSON         Ottawa         7/12  W40 - 44      230    3     88   16:16  2:11    10   231 1:08:30  26.3     7    173   42:14  5:52         
  190     2:07:09 Josey STEEL             Inverary      15/21  W35 - 39      412    13   174   18:41  2:30    15   233 1:08:35  26.2     11   138   39:54  5:33         
  191     2:07:16 Mitchell STEIN          Kingston      24/31  M40 - 44      481    29   253   23:20  3:07    17   127 1:00:13  29.9     25   193   43:44  6:05         
  192     2:07:42 Karen JUTZI             Toronto       11/19  W30 - 34      341    16   230   21:09  2:50    5    131 1:00:34  29.7     14   212   46:00  6:24         
  193     2:07:51 Lesley DALGLEISH        Inverary      12/19  W30 - 34      451    7    103   16:43  2:14    16   210 1:06:35  27.0     11   199   44:33  6:12         
  194     2:08:07 Elaine VAN MELLE        Kingston       7/15  W45 - 49      223    4    155   17:46  2:23    7    189 1:04:27  27.9     9    209   45:54  6:23         
  195     2:08:16 Kim LEPPIK              Kingston      12/23  W25 - 29      439    10   165   18:23  2:28    10   162 1:02:49  28.7     18   226   47:04  6:33         
  196     2:08:18 Lija BICKIS             Nepean        13/23  W25 - 29      390    15   188   18:59  2:32    9    161 1:02:49  28.7     16   222   46:31  6:28         
  197     2:08:21 Corrina WILSON          Kingston      13/19  W30 - 34      215    14   186   18:56  2:32    10   178 1:03:47  28.2     13   207   45:39  6:21         
  198     2:08:28 Michel CHARETTE         Ottawa         5/7   M55 - 59      278    5    229   21:04  2:49    4    138 1:00:55  29.5     5    221   46:31  6:28         
  199     2:09:28 Breagha CARR-HARRIS     Toronto       14/23  W25 - 29      364    14   185   18:55  2:32    15   216 1:06:47  27.0     15   194   43:47  6:05         
  200     2:09:36 Lynne ROUSSEAU          Yarker         8/12  W40 - 44      216    6    183   18:49  2:31    9    223 1:07:47  26.6     8    181   43:01  5:59         
  201     2:09:41 Geoff FLYNN             Bath           1/1   M65 - 69      252    1    141   17:25  2:20    1    192 1:04:33  27.9     1    234   47:44  6:38         
  202     2:09:53 Kristin ANDRUCHOW       Sarnia         9/16  W20 - 24      301    4     48   14:36  1:57    10   225 1:08:02  26.5     10   230   47:17  6:34         
  203     2:09:57 Irv FRANCIS             Cornwall       6/7   M55 - 59      311    4    197   19:25  2:36    5    155 1:02:14  28.9     6    238   48:19  6:43         
  204     2:10:13 Kathryn MCISAAC         Kingston      15/23  W25 - 29      231    13   184   18:51  2:31    12   196 1:04:48  27.8     17   223   46:35  6:29         
  205     2:10:19 Sigai DEMONG            North Vancou  18/19  M30 - 34      319    19   268   25:29  3:24    15   164 1:02:49  28.7     16   169   42:01  5:51         
  206 CLY 2:10:21 Rick BENN               Mississauga   25/28  M35 - 39      414    23   210   19:56  2:40    26   205 1:06:09  27.2     24   198   44:17  6:09         
  207     2:10:24 Lucienne DICKINSON      Kingston       3/8   W50 - 54      267    6    245   22:30  3:00    3    197 1:04:52  27.7     2    183   43:03  5:59         
  208     2:10:42 Erin ARMITAGE           Kingston      16/23  W25 - 29      387    12   175   18:42  2:30    17   236 1:08:57  26.1     13   184   43:04  5:59         
  209     2:10:51 Martha PHILLIPS         Belleville     8/15  W45 - 49      422    10   196   19:23  2:35    9    207 1:06:15  27.2     8    205   45:15  6:18         
  210     2:11:15 Cliff MOUNTAIN          Yarker        25/31  M40 - 44      266    23   219   20:23  2:43    23   193 1:04:37  27.9     27   217   46:15  6:26         
  211     2:11:30 Cheryl POTH             Kingston      14/19  W30 - 34      225    5     92   16:27  2:12    14   201 1:05:45  27.4     18   242   49:19  6:51         
  212     2:11:41 Sarah AHMAD             Kingston      10/16  W20 - 24      415    8     78   15:47  2:07    9    222 1:07:37  26.6     14   237   48:18  6:43         
  213     2:11:45 Elizabeth MACDONALD     Stirling       9/12  W40 - 44      351    9    206   19:47  2:39    7    202 1:05:45  27.4     10   216   46:14  6:26         
  214     2:12:01 Amy VEYSEY              Petrolia      15/19  W30 - 34      446    19   237   21:38  2:54    12   188 1:04:15  28.0     15   214   46:08  6:25         
  215     2:12:27 Lisa FERGUSON           Kingston      16/21  W35 - 39      366    17   227   20:54  2:48    16   245 1:10:13  25.6     13   158   41:21  5:45         
  216     2:12:35 Katherine KEYES         Toronto       11/16  W20 - 24      500    6     54   15:02  2:01    12   238 1:09:33  25.9     12   235   48:01  6:41         
  217     2:12:42 Catherine LACHANCE      Montreal      16/19  W30 - 34      489    11   144   17:31  2:21    9    165 1:02:51  28.6     19   255   52:21  7:17         
  218     2:12:59 Alison KABAROFF         Kingston      17/23  W25 - 29      336    18   203   19:42  2:38    20   258 1:12:59  24.7     11   143   40:18  5:36         
  219     2:13:04 Stephen PETRICK         Kingston      13/14  M25 - 29      384    11   228   20:58  2:48    13   242 1:09:57  25.7     12   171   42:10  5:52         
  220     2:13:13 Scott CLANCY            Kingston      26/31  M40 - 44      348    26   239   21:45  2:54    27   230 1:08:26  26.3     23   182   43:02  5:59         
  221     2:13:37 Mike KIRKPATRICK        Peterborough  19/19  M30 - 34      324    16   199   19:30  2:36    19   227 1:08:08  26.4     19   211   46:00  6:24         
  222     2:14:07 Kristy JENKINS          Kingston      12/16  W20 - 24      423    5     50   14:44  1:58    15   254 1:12:06  25.0     11   231   47:19  6:35         
  223     2:14:25 Sharon KLASSEN          Kingston       9/15  W45 - 49      271    9    192   19:08  2:34    14   253 1:11:38  25.1     6    190   43:40  6:04         
  224     2:14:27 Miranda KEYES           Toronto       13/16  W20 - 24      468    16   213   20:00  2:40    14   252 1:11:34  25.2     9    179   42:54  5:58         
  225     2:15:08 Leah REINBERGER         Kingston      17/19  W30 - 34      455    18   235   21:34  2:53    17   232 1:08:34  26.3     12   202   45:02  6:16         
  226     2:15:17 Melaney TINKESS         Amherstview   14/16  W20 - 24      396    15   179   18:46  2:31    11   228 1:08:16  26.4     13   236   48:16  6:43         
  227     2:15:22 Patti MCCAULEY          Kingston      10/15  W45 - 49      295    14   257   23:34  3:09    8    191 1:04:29  27.9     10   232   47:20  6:35         
  228     2:15:31 Sonya BENN              Mississauga   17/21  W35 - 39      413    8     96   16:32  2:13    18   251 1:11:28  25.2     18   233   47:32  6:37         
  229     2:15:50 Robert BUDGELL          St.  Cathari  27/31  M40 - 44      461    25   238   21:41  2:54    29   249 1:11:03  25.3     24   185   43:07  6:00         
  230     2:16:07 Robyn MCTAVISH          Merrickville  10/12  W40 - 44      246    10   218   20:14  2:42    11   246 1:10:17  25.6     9    206   45:36  6:20         
  231     2:16:27 Marlene VILLENEUVE      Kingston      18/23  W25 - 29      242    21   216   20:11  2:42    13   200 1:05:36  27.4     20   250   50:41  7:03         
  232     2:16:31 Anne GRAHAM             Kingston      19/23  W25 - 29      434    22   226   20:52  2:47    19   256 1:12:22  24.9     14   187   43:18  6:01         
  233     2:16:33 Michelle COWIN          Kingston       4/5   Junior Women  203    4    140   17:20  2:19    4    239 1:09:39  25.8     5    245   49:35  6:54         
  234     2:17:26 Joyce LANG              Kingston      18/19  W30 - 34      268    17   232   21:14  2:50    18   241 1:09:53  25.8     17   219   46:20  6:27         
  235     2:17:41 Lisa KUNOW              Oakville      11/12  W40 - 44      432    11   221   20:25  2:44    8    213 1:06:45  27.0     11   249   50:31  7:01         
  236     2:17:54 Douglas ROBERTSON       Toronto       28/31  M40 - 44      317    28   251   23:02  3:05    28   234 1:08:35  26.2     28   218   46:17  6:26         
  237     2:18:02 Brenda FARNQUIST        Kingston      18/21  W35 - 39      270    18   246   22:34  3:01    17   247 1:10:45  25.4     16   201   44:45  6:13         
  238     2:18:08 Emily SPENCER           Kingston      19/19  W30 - 34      343    4     56   15:03  2:01    19   263 1:16:57  23.4     16   215   46:09  6:25         
  239     2:18:39 Brian MCDONALD          Kingston      20/24  M45 - 49      313    9     81   15:53  2:07    22   219 1:06:59  26.9     23   265   55:48  7:45         
  240 CLY 2:19:09 Mark HORTON             Ottawa        26/28  M35 - 39      395    25   266   25:16  3:23    27   215 1:06:47  27.0     27   228   47:07  6:33         
  241     2:19:19 John ARMITAGE           Kingston       7/7   M55 - 59      385    6    240   21:57  2:56    7    237 1:09:04  26.1     7    239   48:20  6:43         
  242     2:19:39 Gerard YUN              Waterloo      29/31  M40 - 44      494    30   265   25:10  3:22    26   229 1:08:24  26.3     26   213   46:06  6:25         
  243     2:19:53 Nicolette MCGRAW        Kingston      11/15  W45 - 49      391    11   242   22:07  2:57    12   224 1:07:57  26.5     11   246   49:49  6:56         
  244     2:20:29 Curtis MONNIER          Harrowsmith   27/28  M35 - 39      284    21   189   19:03  2:33    28   218 1:06:56  26.9     28   256   52:31  7:18    2:00 
  245     2:21:20 Melissa CASTLE          Philadelphia  15/16  W20 - 24      404    9     91   16:20  2:11    13   248 1:10:55  25.4     15   259   54:06  7:31         
  246     2:21:44 Ted THEELEN             Westport      21/24  M45 - 49      234    23   264   25:00  3:20    21   209 1:06:32  27.1     21   248   50:14  6:59         
  247     2:22:22 Tim GORDANIER           Kingston      22/24  M45 - 49      406    24   267   25:27  3:24    24   240 1:09:49  25.8     20   229   47:08  6:33         
  248     2:22:37 Theresa WALLACE         Ottawa         4/8   W50 - 54      211    4    234   21:18  2:51    4    244 1:10:12  25.6     5    251   51:08  7:07         
  249     2:23:14 Bob KLASSEN             Kingston       9/10  M50 - 54      260    10   273   31:24  4:12    10   211 1:06:42  27.0     9    204   45:09  6:17         
  250     2:23:29 Shawn LA LANTE          Bath          28/28  M35 - 39      329    28   274   33:25  4:28    23   169 1:03:03  28.5     25   225   47:02  6:32         
  251     2:23:31 Susan STREIGHT          Kingston      12/15  W45 - 49      503    15   259   23:41  3:10    11   220 1:07:08  26.8     13   257   52:42  7:20         
  252     2:24:13 Donna OCONNOR           Kingston       5/8   W50 - 54      244    3    222   20:29  2:44    5    267 1:17:50  23.1     4    210   45:55  6:23         
  253     2:24:21 Dora MILTON             Kingston       1/1   W60 - 64      393    1    198   19:28  2:36    1    261 1:15:40  23.8     1    240   49:14  6:51         
  254     2:24:32 Katie RYAN              Toronto       20/23  W25 - 29      340    19   205   19:46  2:39    21   259 1:14:55  24.0     19   247   49:52  6:56         
  255     2:24:39 Natasha MOORE           London        16/16  W20 - 24      224    13   158   17:55  2:24    16   257 1:12:27  24.8     16   260   54:18  7:33         
  256 CLY 2:25:12 Tim ANDERSON            Kingston      30/31  M40 - 44      273    22   193   19:09  2:34    30   250 1:11:08  25.3     31   262   54:56  7:38         
  257     2:25:29 Laurie LOCKERBIE        Kingston      13/15  W45 - 49      232    12   252   23:16  3:07    13   243 1:10:11  25.6     12   253   52:03  7:14         
  258     2:25:30 Megan VOWLES            Kingston      21/23  W25 - 29      235    2     65   15:17  2:03    22   269 1:18:59  22.8     21   252   51:15  7:08         
  259     2:26:39 Wellsley RADECKE        Williamsvill   5/5   Junior Women  467    5    212   20:00  2:40    5    266 1:17:13  23.3     4    243   49:28  6:53         
  260     2:27:55 Peter SLAUGHTER         Kingston      23/24  M45 - 49      303    22   258   23:39  3:10    23   235 1:08:39  26.2     22   264   55:38  7:44         
  261     2:32:35 Hazel ULLYATT           Ottawa        14/15  W45 - 49      476    5    157   17:54  2:24    10   208 1:06:17  27.2     15   272 1:08:24  9:30         
  262     2:32:50 Mary Jane PHILLIPS      Markham        6/8   W50 - 54      417    5    236   21:37  2:53    6    268 1:18:29  22.9     6    258   52:45  7:20         
  263     2:36:40 Michael RADECKE         Williamsvill  31/31  M40 - 44      466    31   272   29:58  4:00    31   265 1:17:10  23.3     30   244   49:33  6:53         
  264     2:36:46 Jennifer BECHTEL        Kitchener     22/23  W25 - 29      239    20   211   19:57  2:40    18   255 1:12:08  25.0     23   271 1:04:42  9:00         
  265     2:41:16 Joanne RODGERS          Stittsville   19/21  W35 - 39      477    20   269   25:34  3:25    19   260 1:15:11  23.9     20   267 1:00:32  8:25         
  266     2:41:45 Patricia SHAW           Burlington     1/1   Elite Women   354    1    263   24:45  3:18    1    271 1:22:06  21.9     1    261   54:55  7:38         
  267     2:43:00 Sarah PERRY             Kingston      12/12  W40 - 44      204    12   254   23:23  3:08    12   264 1:16:58  23.4     12   269 1:02:40  8:43         
  268     2:44:46 Claire KREUGER          Kingston      23/23  W25 - 29      262    23   260   23:49  3:11    23   277 1:28:50  20.3     22   254   52:08  7:15         
  269     2:47:50 Lori CHENIER            Kingston      20/21  W35 - 39      456    21   275   33:34  4:29    20   270 1:19:00  22.8     19   263   55:17  7:41         
  270     2:53:47 Linda BETHUNE           Kingston      15/15  W45 - 49      344    13   256   23:31  3:09    15   276 1:28:07  20.4     14   268 1:02:10  8:38         
  271     2:54:20 Lilian LLOYD            Kingston       7/8   W50 - 54      381    7    276   34:03  4:33    7    274 1:24:11  21.4     7    266   57:58  8:03         
  272     2:56:22 Lynda MILINA            Ottawa        21/21  W35 - 39      265    19   262   24:35  3:17    21   272 1:22:41  21.8     21   273 1:09:06  9:36         
  273     2:56:22 Ruth GEORGE             Kingston       1/1   W65 - 69      264    1    250   23:01  3:05    1    275 1:24:13  21.4     1    274 1:09:09  9:37         
  274     2:58:54 Lynn RIGBY              Yarker         8/8   W50 - 54      269                              8                          8    275 2:20:59 19:35         
  275     3:00:43 Douglas KNOWLES         Kingston       1/1   M70 & Over    501    1    277   41:55  5:36    1    262 1:15:47  23.8     1    270 1:03:02  8:46         
  276 DNF         Ross BELL               Kingston      10/10  M50 - 54      457    1     17   12:41  1:42    5     56   55:39  32.3                                    
  277 DNF         Kerry PHILLIPS          Belleville    24/24  M45 - 49      421    20   208   19:50  2:39    15   139 1:01:08  29.4                                    
  278             Alberto GODINHO         Kingston      14/14  M25 - 29      460    13   255   23:28  3:08    14   273 1:23:43  21.5